Time;durP1;ratioP1;P1;durP2;ratioP2;P2;SDS_P1;SDS_P2;PMS_P1;PMS_P2;Temp;Humidity;BMP_temperature;BMP_pressure;BME280_temperature;BME280_humidity;BME280_pressure;Samples;Min_cycle;Max_cycle;Signal;HPM_P1;HPM_P2
2021/06/01 00:28:46;;;;;;;3.75;3.08;;;;;;;;;;5159299;27;20477;-67
2021/06/01 00:31:12;;;;;;;9.55;3.42;;;;;;;;;;5160488;27;20067;-70
2021/06/01 00:33:38;;;;;;;7.82;3.70;;;;;;;;;;5159781;27;20142;-70
2021/06/01 00:36:05;;;;;;;6.43;3.47;;;;;;;;;;5159908;27;20094;-70
2021/06/01 00:38:31;;;;;;;5.75;3.53;;;;;;;;;;5141075;27;20081;-69
2021/06/01 00:40:57;;;;;;;5.60;3.83;;;;;;;;;;5141169;27;20071;-70
2021/06/01 00:43:23;;;;;;;6.50;4.32;;;;;;;;;;5159750;27;20444;-70
2021/06/01 00:45:49;;;;;;;5.70;3.53;;;;;;;;;;5160198;27;20089;-70
2021/06/01 00:48:15;;;;;;;4.60;3.20;;;;;;;;;;5140772;27;20505;-70
2021/06/01 00:50:40;;;;;;;6.35;4.32;;;;;;;;;;5159978;27;20452;-70
2021/06/01 00:53:07;;;;;;;6.12;4.03;;;;;;;;;;5159691;27;20090;-70
2021/06/01 00:55:33;;;;;;;5.87;3.85;;;;;;;;;;5159893;27;20124;-70
2021/06/01 00:57:59;;;;;;;6.90;3.70;;;;;;;;;;5160088;27;20168;-70
2021/06/01 01:03:09;;;;;;;5.37;4.15;;;;;;;;;;5159834;27;20164;-71
2021/06/01 01:05:39;;;;;;;6.85;4.00;;;;;;;;;;5159688;27;20074;-71
2021/06/01 01:11:09;;;;;;;9.02;4.15;;;;;;;;;;5143002;27;20092;-71
2021/06/01 01:13:59;;;;;;;8.45;4.35;;;;;;;;;;5159665;27;20187;-71
2021/06/01 01:16:26;;;;;;;5.80;4.35;;;;;;;;;;5124874;27;20445;-70
2021/06/01 01:19:12;;;;;;;6.05;4.20;;;;;;;;;;5140559;27;20095;-70
2021/06/01 01:21:51;;;;;;;7.25;4.07;;;;;;;;;;5160008;27;20101;-70
2021/06/01 01:24:45;;;;;;;6.82;4.78;;;;;;;;;;5160056;27;20069;-70
2021/06/01 01:27:35;;;;;;;6.25;4.22;;;;;;;;;;5140338;27;20173;-70
2021/06/01 01:30:03;;;;;;;5.12;3.78;;;;;;;;;;5141188;27;20078;-70
2021/06/01 01:32:50;;;;;;;9.93;4.70;;;;;;;;;;5160075;27;20086;-71
2021/06/01 01:35:16;;;;;;;8.88;3.90;;;;;;;;;;5159673;27;20469;-70
2021/06/01 01:37:42;;;;;;;5.30;4.07;;;;;;;;;;5140554;27;20184;-70
2021/06/01 01:40:08;;;;;;;8.98;4.82;;;;;;;;;;5124250;27;20425;-70
2021/06/01 01:42:45;;;;;;;4.97;3.80;;;;;;;;;;5140879;27;20149;-70
2021/06/01 01:45:25;;;;;;;6.72;4.07;;;;;;;;;;5142963;27;20061;-70
2021/06/01 01:51:21;;;;;;;7.18;5.00;;;;;;;;;;5112927;27;20090;-71
2021/06/01 01:53:53;;;;;;;7.25;4.87;;;;;;;;;;5129046;27;20174;-70
2021/06/01 01:56:36;;;;;;;6.53;4.82;;;;;;;;;;5123527;27;20062;-70
2021/06/01 01:59:03;;;;;;;14.27;5.47;;;;;;;;;;5142753;27;20090;-68
2021/06/01 02:01:36;;;;;;;8.80;5.18;;;;;;;;;;5140612;27;20094;-68
2021/06/01 02:04:02;;;;;;;6.32;4.55;;;;;;;;;;5141203;27;20391;-68
2021/06/01 02:06:29;;;;;;;5.50;4.28;;;;;;;;;;5140539;27;20085;-69
2021/06/01 02:08:55;;;;;;;11.45;4.90;;;;;;;;;;5140925;27;20074;-69
2021/06/01 02:11:21;;;;;;;8.25;5.57;;;;;;;;;;5159353;27;20096;-68
2021/06/01 02:13:50;;;;;;;7.07;5.30;;;;;;;;;;5159376;27;20165;-68
2021/06/01 02:16:16;;;;;;;9.73;5.82;;;;;;;;;;5159258;27;20077;-68
2021/06/01 02:18:43;;;;;;;8.55;5.55;;;;;;;;;;5159459;27;20166;-68
2021/06/01 02:21:20;;;;;;;8.75;6.22;;;;;;;;;;5159343;27;20160;-68
2021/06/01 02:23:47;;;;;;;6.50;5.62;;;;;;;;;;5141754;27;20078;-68
2021/06/01 02:26:29;;;;;;;9.13;5.60;;;;;;;;;;5140698;27;20059;-68
2021/06/01 02:28:58;;;;;;;9.13;5.55;;;;;;;;;;5159580;27;20074;-69
2021/06/01 02:31:30;;;;;;;7.47;5.22;;;;;;;;;;5140233;27;20098;-70
2021/06/01 02:33:56;;;;;;;11.38;6.22;;;;;;;;;;5159305;27;20094;-69
2021/06/01 02:36:22;;;;;;;8.32;6.30;;;;;;;;;;5106294;27;20500;-68
2021/06/01 02:38:48;;;;;;;10.82;6.50;;;;;;;;;;5140233;27;20090;-69
2021/06/01 02:41:14;;;;;;;8.90;5.30;;;;;;;;;;5140291;27;20082;-70
2021/06/01 02:43:40;;;;;;;8.85;6.28;;;;;;;;;;5123076;27;20476;-70
2021/06/01 02:46:06;;;;;;;12.00;6.28;;;;;;;;;;5140329;27;20070;-68
2021/06/01 02:48:32;;;;;;;12.00;5.82;;;;;;;;;;5140177;27;20071;-67
2021/06/01 02:51:13;;;;;;;9.30;5.87;;;;;;;;;;5140661;27;20086;-67
2021/06/01 02:53:41;;;;;;;12.40;5.70;;;;;;;;;;5158952;27;20238;-67
2021/06/01 02:56:07;;;;;;;9.90;5.47;;;;;;;;;;5159409;27;20448;-68
2021/06/01 02:58:33;;;;;;;11.43;7.12;;;;;;;;;;5123349;27;20082;-69
2021/06/01 03:01:03;;;;;;;13.27;6.00;;;;;;;;;;5123048;27;20457;-68
2021/06/01 03:03:29;;;;;;;10.85;6.15;;;;;;;;;;5140744;27;20090;-70
2021/06/01 03:05:55;;;;;;;8.82;5.72;;;;;;;;;;5159426;27;20477;-69
2021/06/01 03:08:27;;;;;;;7.90;5.18;;;;;;;;;;5158810;27;20090;-69
2021/06/01 03:10:57;;;;;;;8.32;5.47;;;;;;;;;;5140738;27;20089;-69
2021/06/01 03:13:23;;;;;;;10.43;5.68;;;;;;;;;;5156736;27;20162;-69
2021/06/01 03:15:49;;;;;;;8.60;5.43;;;;;;;;;;5156920;27;20089;-70
2021/06/01 03:18:15;;;;;;;12.50;5.70;;;;;;;;;;5157017;27;20082;-70
2021/06/01 03:20:42;;;;;;;8.30;5.68;;;;;;;;;;5138229;27;20116;-70
2021/06/01 03:23:08;;;;;;;11.18;5.93;;;;;;;;;;5157640;27;20091;-69
2021/06/01 03:25:34;;;;;;;7.75;5.37;;;;;;;;;;5157685;27;20182;-68
2021/06/01 03:28:00;;;;;;;7.90;5.55;;;;;;;;;;5157689;27;20090;-66
2021/06/01 03:30:26;;;;;;;8.43;5.62;;;;;;;;;;5159200;27;20524;-67
2021/06/01 03:32:55;;;;;;;7.37;5.25;;;;;;;;;;5158861;27;20165;-67
2021/06/01 03:35:21;;;;;;;8.85;5.18;;;;;;;;;;5159268;27;20097;-67
2021/06/01 03:37:47;;;;;;;8.25;5.37;;;;;;;;;;5158948;27;20248;-67
2021/06/01 03:40:13;;;;;;;7.12;5.00;;;;;;;;;;5158849;27;20098;-67
2021/06/01 03:42:39;;;;;;;6.60;4.82;;;;;;;;;;5122687;27;20082;-67
2021/06/01 03:45:06;;;;;;;6.68;5.45;;;;;;;;;;5139867;27;20081;-67
2021/06/01 03:47:32;;;;;;;8.95;4.87;;;;;;;;;;5158996;27;20076;-67
2021/06/01 03:49:58;;;;;;;7.75;5.37;;;;;;;;;;5159336;27;20439;-67
2021/06/01 03:52:24;;;;;;;9.60;5.30;;;;;;;;;;5158609;27;20179;-67
2021/06/01 03:54:49;;;;;;;6.85;5.22;;;;;;;;;;5158600;27;20086;-67
2021/06/01 03:57:15;;;;;;;9.48;5.90;;;;;;;;;;5159068;27;20158;-67
2021/06/01 03:59:41;;;;;;;8.68;5.68;;;;;;;;;;5139893;27;20140;-67
2021/06/01 04:02:07;;;;;;;7.12;4.68;;;;;;;;;;5158536;27;20126;-67
2021/06/01 04:04:34;;;;;;;6.40;5.28;;;;;;;;;;5139762;27;20509;-67
2021/06/01 04:07:02;;;;;;;9.73;5.53;;;;;;;;;;5158369;27;20260;-67
2021/06/01 04:09:28;;;;;;;6.97;5.50;;;;;;;;;;5140245;27;20418;-71
2021/06/01 04:11:54;;;;;;;8.63;5.72;;;;;;;;;;5158594;27;20087;-70
2021/06/01 04:14:20;;;;;;;8.68;5.32;;;;;;;;;;5158450;27;20583;-70
2021/06/01 04:16:46;;;;;;;8.50;4.78;;;;;;;;;;5158806;27;20089;-70
2021/06/01 04:19:13;;;;;;;9.05;5.28;;;;;;;;;;5158650;27;20192;-70
2021/06/01 04:21:41;;;;;;;5.82;4.68;;;;;;;;;;5158896;27;20492;-70
2021/06/01 04:24:08;;;;;;;9.05;5.20;;;;;;;;;;5160051;27;20207;-70
2021/06/01 04:26:34;;;;;;;7.57;5.37;;;;;;;;;;5159849;27;20096;-70
2021/06/01 04:29:00;;;;;;;6.95;4.93;;;;;;;;;;5159978;27;20426;-69
2021/06/01 04:31:26;;;;;;;8.45;5.10;;;;;;;;;;5160069;27;20087;-68
2021/06/01 04:33:51;;;;;;;7.57;4.95;;;;;;;;;;5140785;27;20445;-70
2021/06/01 04:36:18;;;;;;;8.60;5.00;;;;;;;;;;5159886;27;20321;-71
2021/06/01 04:38:43;;;;;;;7.40;5.45;;;;;;;;;;5159895;27;20262;-72
2021/06/01 04:41:09;;;;;;;9.15;4.90;;;;;;;;;;5160343;27;20074;-73
2021/06/01 04:43:35;;;;;;;7.55;4.05;;;;;;;;;;5159729;27;20074;-70
2021/06/01 04:46:01;;;;;;;9.98;5.28;;;;;;;;;;5163924;27;20164;-70
2021/06/01 04:48:27;;;;;;;8.70;4.97;;;;;;;;;;5181139;27;20067;-71
2021/06/01 04:50:53;;;;;;;9.68;5.35;;;;;;;;;;5164851;27;20163;-70
2021/06/01 04:53:19;;;;;;;6.75;4.70;;;;;;;;;;5163463;27;20093;-68
2021/06/01 04:55:45;;;;;;;5.35;3.78;;;;;;;;;;5159733;27;20592;-68
2021/06/01 04:58:11;;;;;;;6.95;5.47;;;;;;;;;;5159674;27;20226;-67
2021/06/01 05:00:37;;;;;;;8.63;5.40;;;;;;;;;;5159708;27;20492;-67
2021/06/01 05:03:02;;;;;;;8.65;5.95;;;;;;;;;;5160142;27;20395;-67
2021/06/01 05:05:28;;;;;;;7.47;5.40;;;;;;;;;;5159798;27;20705;-69
2021/06/01 05:07:55;;;;;;;8.25;5.55;;;;;;;;;;5160018;27;20091;-67
2021/06/01 05:10:21;;;;;;;7.47;5.93;;;;;;;;;;5159699;27;20089;-68
2021/06/01 05:12:47;;;;;;;12.30;6.18;;;;;;;;;;5159758;27;20427;-69
2021/06/01 05:15:13;;;;;;;9.75;6.25;;;;;;;;;;5159585;27;20101;-69
2021/06/01 05:17:40;;;;;;;9.52;6.45;;;;;;;;;;5157626;27;20489;-69
2021/06/01 05:20:07;;;;;;;7.40;5.70;;;;;;;;;;5159663;27;20082;-69
2021/06/01 05:22:33;;;;;;;9.60;6.82;;;;;;;;;;5159429;27;20200;-69
2021/06/01 05:25:00;;;;;;;6.87;4.85;;;;;;;;;;5140639;27;20098;-68
2021/06/01 05:27:26;;;;;;;7.90;5.00;;;;;;;;;;5159172;27;20181;-71
2021/06/01 05:29:56;;;;;;;9.10;5.68;;;;;;;;;;5140719;27;20189;-67
2021/06/01 05:33:03;;;;;;;8.85;4.93;;;;;;;;;;5159332;27;20090;-67
2021/06/01 05:35:40;;;;;;;9.65;6.30;;;;;;;;;;5144810;27;20065;-67
2021/06/01 05:38:03;;;;;;;8.20;5.53;;;;;;;;;;5143310;27;20077;-67
2021/06/01 05:40:28;;;;;;;7.07;5.55;;;;;;;;;;5140571;27;20106;-67
2021/06/01 05:42:54;;;;;;;6.82;5.37;;;;;;;;;;5159493;27;20085;-66
2021/06/01 05:45:20;;;;;;;10.40;5.10;;;;;;;;;;5140327;27;20207;-67
2021/06/01 05:47:46;;;;;;;8.27;5.12;;;;;;;;;;5159104;27;20083;-66
2021/06/01 05:50:12;;;;;;;10.80;5.85;;;;;;;;;;5123397;27;20192;-67
2021/06/01 05:52:38;;;;;;;10.98;5.32;;;;;;;;;;5140152;27;20079;-67
2021/06/01 05:55:05;;;;;;;8.35;4.75;;;;;;;;;;5159323;27;20100;-67
2021/06/01 05:57:31;;;;;;;18.62;5.55;;;;;;;;;;5159055;27;20102;-67
2021/06/01 05:59:56;;;;;;;9.05;6.28;;;;;;;;;;5159280;27;20112;-67
2021/06/01 06:02:22;;;;;;;9.27;5.07;;;;;;;;;;5158741;27;20187;-71
2021/06/01 06:04:48;;;;;;;9.50;4.93;;;;;;;;;;5159057;27;20070;-66
2021/06/01 06:07:14;;;;;;;10.32;6.07;;;;;;;;;;5158882;27;20081;-67
2021/06/01 06:09:40;;;;;;;13.77;5.80;;;;;;;;;;5140497;27;20504;-66
2021/06/01 06:12:07;;;;;;;17.17;5.65;;;;;;;;;;5158961;27;20086;-66
2021/06/01 06:14:33;;;;;;;7.87;5.50;;;;;;;;;;5159461;27;20094;-66
2021/06/01 06:17:07;;;;;;;10.05;5.50;;;;;;;;;;5158972;27;20082;-66
2021/06/01 06:19:40;;;;;;;8.90;5.75;;;;;;;;;;5159046;27;20505;-67
2021/06/01 06:22:06;;;;;;;5.82;4.30;;;;;;;;;;5159236;27;20188;-67
2021/06/01 06:24:32;;;;;;;6.97;5.65;;;;;;;;;;5158943;27;20213;-68
2021/06/01 06:26:58;;;;;;;12.15;5.55;;;;;;;;;;5159495;27;20090;-68
2021/06/01 06:29:24;;;;;;;6.70;5.18;;;;;;;;;;5159467;27;20191;-69
2021/06/01 06:31:50;;;;;;;8.20;5.45;;;;;;;;;;5140556;27;20070;-68
2021/06/01 06:34:16;;;;;;;7.93;5.32;;;;;;;;;;5159692;27;20073;-69
2021/06/01 06:36:42;;;;;;;8.48;5.03;;;;;;;;;;5159067;27;20089;-69
2021/06/01 06:39:09;;;;;;;5.90;4.53;;;;;;;;;;5160075;27;20509;-69
2021/06/01 06:41:35;;;;;;;8.68;4.82;;;;;;;;;;5159585;27;20112;-68
2021/06/01 06:44:02;;;;;;;7.40;5.00;;;;;;;;;;5140683;27;20484;-68
2021/06/01 06:46:37;;;;;;;6.07;4.78;;;;;;;;;;5141279;27;20167;-69
2021/06/01 06:49:03;;;;;;;5.80;4.47;;;;;;;;;;5159994;27;20146;-67
2021/06/01 06:51:30;;;;;;;10.45;4.95;;;;;;;;;;5157872;27;20168;-68
2021/06/01 06:53:56;;;;;;;11.15;4.85;;;;;;;;;;5159488;27;20070;-67
2021/06/01 06:56:28;;;;;;;8.07;4.10;;;;;;;;;;5159111;27;20173;-66
2021/06/01 06:58:55;;;;;;;6.40;5.00;;;;;;;;;;5159177;27;20089;-67
2021/06/01 07:01:21;;;;;;;5.28;4.20;;;;;;;;;;5159529;27;20517;-68
2021/06/01 07:03:46;;;;;;;6.25;5.03;;;;;;;;;;5159810;27;20173;-68
2021/06/01 07:06:14;;;;;;;6.65;5.25;;;;;;;;;;5159749;27;20191;-68
2021/06/01 07:08:40;;;;;;;7.57;5.10;;;;;;;;;;5159293;27;20085;-69
2021/06/01 07:11:06;;;;;;;6.53;5.03;;;;;;;;;;5158840;27;20098;-69
2021/06/01 07:13:43;;;;;;;9.85;5.15;;;;;;;;;;5158528;27;20256;-67
2021/06/01 07:16:09;;;;;;;5.25;4.50;;;;;;;;;;5159114;27;20066;-68
2021/06/01 07:18:38;;;;;;;6.57;4.93;;;;;;;;;;5158435;27;20556;-67
2021/06/01 07:21:06;;;;;;;6.82;4.50;;;;;;;;;;5158791;27;20489;-68
2021/06/01 07:23:32;;;;;;;7.65;4.40;;;;;;;;;;5158975;27;20303;-67
2021/06/01 07:25:58;;;;;;;6.28;4.20;;;;;;;;;;5158693;27;20098;-69
2021/06/01 07:28:24;;;;;;;7.05;5.03;;;;;;;;;;5158483;27;20106;-67
2021/06/01 07:30:50;;;;;;;5.72;4.87;;;;;;;;;;5158681;27;20205;-68
2021/06/01 07:33:16;;;;;;;7.07;4.87;;;;;;;;;;5158698;27;20591;-69
2021/06/01 07:35:42;;;;;;;8.85;4.53;;;;;;;;;;5158745;27;20105;-68
2021/06/01 07:38:10;;;;;;;7.95;4.95;;;;;;;;;;5158591;27;20083;-68
2021/06/01 07:40:38;;;;;;;6.45;4.87;;;;;;;;;;5156960;27;20478;-68
2021/06/01 07:43:04;;;;;;;5.60;5.05;;;;;;;;;;5158665;27;20140;-69
2021/06/01 07:45:30;;;;;;;5.87;4.22;;;;;;;;;;5158468;27;20505;-68
2021/06/01 07:47:55;;;;;;;7.87;4.82;;;;;;;;;;5158820;27;20090;-69
2021/06/01 07:50:22;;;;;;;6.57;4.43;;;;;;;;;;5158635;27;20441;-68
2021/06/01 07:52:47;;;;;;;9.50;4.57;;;;;;;;;;5157154;27;20093;-69
2021/06/01 07:55:13;;;;;;;7.60;5.72;;;;;;;;;;5139524;27;20414;-68
2021/06/01 07:57:39;;;;;;;6.75;5.20;;;;;;;;;;5140059;27;20063;-68
2021/06/01 08:00:06;;;;;;;6.65;4.00;;;;;;;;;;5160110;27;20434;-69
2021/06/01 08:02:32;;;;;;;7.20;4.55;;;;;;;;;;5160353;27;20082;-68
2021/06/01 08:04:58;;;;;;;5.95;4.82;;;;;;;;;;5160176;27;20157;-67
2021/06/01 08:07:24;;;;;;;9.45;4.22;;;;;;;;;;5160336;27;20079;-67
2021/06/01 08:09:50;;;;;;;4.78;4.05;;;;;;;;;;5160306;27;20155;-67
2021/06/01 08:12:16;;;;;;;5.75;4.12;;;;;;;;;;5160286;27;20070;-67
2021/06/01 08:14:42;;;;;;;4.82;3.75;;;;;;;;;;5141238;27;20126;-67
2021/06/01 08:17:09;;;;;;;9.88;4.68;;;;;;;;;;5160456;27;20093;-67
2021/06/01 08:19:39;;;;;;;6.25;4.72;;;;;;;;;;5141700;27;20068;-67
2021/06/01 08:24:49;;;;;;;7.78;3.85;;;;;;;;;;5159995;27;20081;-67
2021/06/01 08:27:15;;;;;;;5.05;2.72;;;;;;;;;;5157797;27;20078;-67
2021/06/01 08:29:40;;;;;;;6.75;3.83;;;;;;;;;;5159904;27;20508;-67
2021/06/01 08:32:07;;;;;;;2.40;2.20;;;;;;;;;;5159776;27;20177;-66
2021/06/01 08:34:33;;;;;;;6.65;3.62;;;;;;;;;;5159910;27;20109;-67
2021/06/01 08:36:59;;;;;;;6.05;3.25;;;;;;;;;;5159913;27;20183;-67
2021/06/01 08:39:26;;;;;;;6.35;3.45;;;;;;;;;;5140839;27;20104;-67
2021/06/01 08:41:53;;;;;;;5.20;3.50;;;;;;;;;;5141007;27;20062;-68
2021/06/01 08:44:19;;;;;;;6.20;3.28;;;;;;;;;;5159996;27;20093;-67
2021/06/01 08:46:49;;;;;;;3.92;3.37;;;;;;;;;;5141008;27;20187;-67
2021/06/01 08:49:15;;;;;;;4.40;3.20;;;;;;;;;;5159821;27;20070;-67
2021/06/01 08:51:41;;;;;;;5.95;3.30;;;;;;;;;;5159721;27;20504;-68
2021/06/01 08:54:07;;;;;;;5.50;3.58;;;;;;;;;;5160117;27;20075;-68
2021/06/01 08:56:33;;;;;;;5.87;3.30;;;;;;;;;;5160224;27;20087;-68
2021/06/01 08:58:59;;;;;;;4.37;2.97;;;;;;;;;;5141531;27;20073;-66
2021/06/01 09:01:25;;;;;;;4.70;3.05;;;;;;;;;;5159846;27;20508;-68
2021/06/01 09:03:55;;;;;;;7.10;3.53;;;;;;;;;;5124145;27;20074;-68
2021/06/01 09:22:29;;;;;;;5.35;3.17;;;;;;;;;;5159447;27;20493;-67
2021/06/01 09:25:09;;;;;;;4.25;3.00;;;;;;;;;;5141010;27;20489;-67
2021/06/01 09:27:44;;;;;;;5.55;3.37;;;;;;;;;;5157790;27;20165;-67
2021/06/01 09:30:10;;;;;;;;;;;;;;;;;;5141901;27;20082;-67
2021/06/01 09:32:43;;;;;;;5.10;2.83;;;;;;;;;;5159970;27;19993;-67
2021/06/01 09:35:09;;;;;;;4.75;3.17;;;;;;;;;;5159524;27;20058;-67
2021/06/01 09:37:36;;;;;;;6.60;3.55;;;;;;;;;;5158147;27;20070;-67
2021/06/01 09:40:20;;;;;;;5.72;4.20;;;;;;;;;;5159917;27;20634;-66
2021/06/01 09:42:50;;;;;;;4.32;3.42;;;;;;;;;;5163293;27;20154;-67
2021/06/01 09:45:25;;;;;;;3.67;3.08;;;;;;;;;;5151161;27;20085;-68
2021/06/01 09:47:58;;;;;;;4.65;3.67;;;;;;;;;;5151914;27;20502;-67
2021/06/01 09:52:58;;;;;;;4.95;2.90;;;;;;;;;;5161355;27;20510;-66
2021/06/01 09:57:55;;;;;;;4.50;3.80;;;;;;;;;;5159937;27;20527;-66
2021/06/01 10:00:25;;;;;;;7.00;3.53;;;;;;;;;;5141589;27;20074;-66
2021/06/01 10:03:05;;;;;;;4.03;3.50;;;;;;;;;;5160166;27;20482;-66
2021/06/01 10:05:32;;;;;;;7.10;3.83;;;;;;;;;;5160549;27;20065;-67
2021/06/01 10:07:59;;;;;;;6.05;3.62;;;;;;;;;;5160013;27;20087;-67
2021/06/01 10:10:30;;;;;;;4.20;3.42;;;;;;;;;;5160237;27;20089;-67
2021/06/01 10:13:02;;;;;;;5.07;3.05;;;;;;;;;;5160508;27;20069;-66
2021/06/01 10:15:30;;;;;;;9.48;3.90;;;;;;;;;;5160626;27;20096;-68
2021/06/01 10:17:56;;;;;;;4.15;3.30;;;;;;;;;;5141038;27;20078;-68
2021/06/01 10:20:23;;;;;;;4.03;3.25;;;;;;;;;;5160604;27;20062;-69
2021/06/01 10:22:49;;;;;;;3.72;3.10;;;;;;;;;;5159556;27;20085;-69
2021/06/01 10:25:16;;;;;;;4.53;3.47;;;;;;;;;;5140396;27;20106;-68
2021/06/01 10:27:43;;;;;;;5.03;2.70;;;;;;;;;;5159035;27;20086;-68
2021/06/01 10:30:10;;;;;;;4.12;3.40;;;;;;;;;;5159679;27;20425;-68
2021/06/01 10:32:38;;;;;;;3.47;3.12;;;;;;;;;;5159418;27;20097;-68
2021/06/01 10:35:08;;;;;;;4.95;3.75;;;;;;;;;;5159106;27;20545;-68
2021/06/01 10:52:01;;;;;;;4.57;3.97;;;;;;;;;;5159131;27;20489;-68
2021/06/01 10:54:46;;;;;;;3.62;3.20;;;;;;;;;;5159132;27;20079;-68
2021/06/01 10:57:16;;;;;;;6.35;4.57;;;;;;;;;;5159071;27;20168;-68
2021/06/01 10:59:59;;;;;;;11.88;3.60;;;;;;;;;;5159655;27;20135;-68
2021/06/01 11:02:26;;;;;;;6.72;3.30;;;;;;;;;;5159511;27;20540;-69
2021/06/01 11:05:15;;;;;;;6.10;3.33;;;;;;;;;;5159557;27;20078;-69
2021/06/01 11:08:02;;;;;;;3.97;3.37;;;;;;;;;;5159155;27;20494;-68
2021/06/01 11:10:45;;;;;;;4.32;3.53;;;;;;;;;;5159196;27;20126;-69
2021/06/01 11:13:31;;;;;;;3.20;2.50;;;;;;;;;;5159015;27;20125;-69
2021/06/01 11:15:58;;;;;;;8.00;3.65;;;;;;;;;;5144556;27;20434;-69
2021/06/01 11:18:39;;;;;;;7.78;3.45;;;;;;;;;;5159273;27;20169;-69
2021/06/01 11:21:40;;;;;;;6.70;3.03;;;;;;;;;;5159020;27;20070;-68
2021/06/01 11:35:26;;;;;;;6.60;3.03;;;;;;;;;;5160879;27;20555;-69
2021/06/01 11:43:13;;;;;;;;;;;;;;;;;;5143201;27;20063;-69
2021/06/01 11:51:15;;;;;;;2.15;1.95;;;;;;;;;;5143283;27;20089;-68
2021/06/01 11:53:50;;;;;;;4.00;2.00;;;;;;;;;;5160264;27;20098;-67
2021/06/01 11:56:19;;;;;;;4.28;2.25;;;;;;;;;;5160254;27;20069;-68
2021/06/01 12:05:04;;;;;;;2.15;1.95;;;;;;;;;;5160536;27;20079;-69
2021/06/01 12:18:48;;;;;;;2.58;1.90;;;;;;;;;;5144319;27;20090;-68
2021/06/01 12:21:29;;;;;;;3.25;2.00;;;;;;;;;;5160100;27;20643;-68
2021/06/01 12:24:01;;;;;;;6.62;2.22;;;;;;;;;;5160041;27;20067;-68
2021/06/01 12:31:59;;;;;;;2.95;2.50;;;;;;;;;;5143937;27;20086;-66
2021/06/01 12:34:47;;;;;;;3.37;2.42;;;;;;;;;;5141416;27;20191;-67
2021/06/01 13:14:23;;;;;;;3.97;2.62;;;;;;;;;;5159558;27;20182;-66
2021/06/01 13:30:29;;;;;;;3.42;2.15;;;;;;;;;;5159603;27;20090;-66
2021/06/01 13:46:46;;;;;;;4.72;2.60;;;;;;;;;;5159307;27;20506;-67
2021/06/01 13:57:09;;;;;;;4.93;2.25;;;;;;;;;;5159581;27;20177;-67
2021/06/01 13:59:48;;;;;;;7.15;2.33;;;;;;;;;;5140785;27;20509;-68
2021/06/01 14:10:48;;;;;;;4.25;2.50;;;;;;;;;;5160157;27;20078;-68
2021/06/01 14:21:34;;;;;;;6.35;2.95;;;;;;;;;;5159391;27;20097;-66
2021/06/01 15:30:03;;;;;;;7.32;3.90;;;;;;;;;;5143213;27;20518;-69
2021/06/01 15:40:58;;;;;;;6.30;4.25;;;;;;;;;;5142607;27;20078;-68
2021/06/01 15:49:14;;;;;;;5.65;4.12;;;;;;;;;;5158945;27;20074;-71
2021/06/01 16:32:03;;;;;;;6.57;3.05;;;;;;;;;;5139945;27;20089;-71
2021/06/01 17:05:02;;;;;;;5.43;2.83;;;;;;;;;;5123348;27;20090;-70
2021/06/01 17:12:55;;;;;;;5.65;3.00;;;;;;;;;;5139046;27;20152;-70
2021/06/01 17:15:22;;;;;;;3.58;2.78;;;;;;;;;;5139053;27;20106;-70
2021/06/01 17:17:52;;;;;;;5.82;2.70;;;;;;;;;;5120158;27;20093;-70
2021/06/01 17:36:32;;;;;;;3.37;2.80;;;;;;;;;;5158391;27;20070;-70
2021/06/01 17:38:58;;;;;;;8.77;3.40;;;;;;;;;;5140790;27;20197;-70
2021/06/01 17:41:25;;;;;;;3.60;2.83;;;;;;;;;;5159660;27;20446;-69
2021/06/01 17:43:51;;;;;;;7.40;3.25;;;;;;;;;;5158275;27;20102;-69
2021/06/01 17:46:17;;;;;;;7.20;4.35;;;;;;;;;;5157904;27;20090;-70
2021/06/01 17:48:55;;;;;;;7.82;6.15;;;;;;;;;;5140766;27;20098;-67
2021/06/01 17:51:24;;;;;;;6.50;5.70;;;;;;;;;;5157818;27;20401;-70
2021/06/01 17:53:50;;;;;;;6.75;4.15;;;;;;;;;;5140746;27;20508;-69
2021/06/01 17:56:20;;;;;;;8.20;3.83;;;;;;;;;;5159955;27;20086;-70
2021/06/01 17:58:47;;;;;;;6.35;4.12;;;;;;;;;;5159801;27;20094;-68
2021/06/01 18:01:24;;;;;;;9.15;3.78;;;;;;;;;;5159518;27;20163;-70
2021/06/01 18:03:57;;;;;;;8.70;3.50;;;;;;;;;;5159525;27;20417;-69
2021/06/01 18:06:26;;;;;;;5.22;3.45;;;;;;;;;;5159593;27;20662;-68
2021/06/01 18:09:03;;;;;;;6.40;3.80;;;;;;;;;;5159643;27;20413;-68
2021/06/01 18:29:37;;;;;;;4.43;3.33;;;;;;;;;;5159290;27;20182;-71
2021/06/01 19:00:01;;;;;;;2.87;2.20;;;;;;;;;;5159394;27;20080;-72
2021/06/01 19:01:46;;;;;;;5.78;3.08;;;;;;;;;;5159312;27;20565;-73
2021/06/01 19:12:14;;;;;;;2.53;2.30;;;;;;;;;;5159295;27;20070;-69
2021/06/01 19:25:56;;;;;;;3.67;2.40;;;;;;;;;;5157504;27;20093;-70
2021/06/01 19:50:12;;;;;;;3.83;2.30;;;;;;;;;;5159206;27;20098;-68
2021/06/01 19:52:44;;;;;;;3.78;2.15;;;;;;;;;;5159316;27;20239;-68
2021/06/01 19:55:10;;;;;;;2.00;1.90;;;;;;;;;;5141887;27;20489;-68
2021/06/01 19:57:36;;;;;;;4.00;2.25;;;;;;;;;;5160182;27;20083;-68
2021/06/01 20:00:03;;;;;;;3.33;2.10;;;;;;;;;;5160444;27;20196;-68
2021/06/01 20:02:33;;;;;;;4.80;2.03;;;;;;;;;;5160024;27;20547;-68
2021/06/01 20:05:00;;;;;;;2.58;2.00;;;;;;;;;;5160247;27;20483;-69
2021/06/01 20:07:27;;;;;;;4.78;2.00;;;;;;;;;;5160342;27;20113;-68
2021/06/01 20:09:53;;;;;;;2.97;2.10;;;;;;;;;;5159974;27;20082;-69
2021/06/01 20:12:19;;;;;;;5.00;2.03;;;;;;;;;;5159967;27;20081;-68
2021/06/01 20:14:45;;;;;;;4.93;2.33;;;;;;;;;;5159961;27;20245;-68
2021/06/01 20:17:38;;;;;;;4.35;2.03;;;;;;;;;;5160366;27;20081;-71
2021/06/01 20:20:11;;;;;;;4.43;2.08;;;;;;;;;;5157053;27;20077;-69
2021/06/01 20:22:42;;;;;;;7.90;3.50;;;;;;;;;;5160045;27;20161;-68
2021/06/01 20:25:09;;;;;;;2.50;1.98;;;;;;;;;;5160500;27;20112;-68
2021/06/01 20:27:34;;;;;;;5.37;2.08;;;;;;;;;;5159826;27;20241;-68
2021/06/01 20:30:03;;;;;;;3.05;2.00;;;;;;;;;;5123867;27;20328;-70
2021/06/01 20:35:16;;;;;;;3.97;2.10;;;;;;;;;;5158577;27;20094;-69
2021/06/01 20:37:42;;;;;;;2.65;2.30;;;;;;;;;;5158207;27;20156;-69
2021/06/01 20:40:10;;;;;;;4.45;2.37;;;;;;;;;;5160040;27;20070;-69
2021/06/01 20:42:38;;;;;;;3.10;2.15;;;;;;;;;;5160012;27;20137;-71
2021/06/01 20:45:04;;;;;;;5.62;2.53;;;;;;;;;;5160026;27;20086;-68
2021/06/01 20:47:30;;;;;;;4.70;2.10;;;;;;;;;;5158169;27;20078;-69
2021/06/01 20:49:57;;;;;;;4.93;2.03;;;;;;;;;;5158284;27;20429;-70
2021/06/01 20:52:23;;;;;;;6.60;2.97;;;;;;;;;;5141458;27;20075;-69
2021/06/01 20:54:49;;;;;;;6.43;2.45;;;;;;;;;;5141251;27;20089;-69
2021/06/01 20:57:15;;;;;;;4.62;2.00;;;;;;;;;;5159984;27;20102;-70
2021/06/01 20:59:41;;;;;;;4.15;1.90;;;;;;;;;;5158305;27;20176;-71
2021/06/01 21:02:09;;;;;;;2.00;1.80;;;;;;;;;;5160013;27;20486;-71
2021/06/01 21:04:35;;;;;;;5.45;2.20;;;;;;;;;;5158218;27;20084;-72
2021/06/01 21:07:00;;;;;;;8.95;2.58;;;;;;;;;;5124013;27;20478;-70
2021/06/01 21:09:26;;;;;;;5.78;2.15;;;;;;;;;;5140898;27;20631;-72
2021/06/01 21:11:52;;;;;;;3.47;2.30;;;;;;;;;;5159696;27;20557;-71
2021/06/01 21:14:18;;;;;;;3.53;2.25;;;;;;;;;;5158062;27;20089;-71
2021/06/01 21:16:44;;;;;;;5.07;2.50;;;;;;;;;;5159773;27;20098;-71
2021/06/01 21:19:10;;;;;;;5.18;2.75;;;;;;;;;;5159829;27;20085;-71
2021/06/01 21:21:36;;;;;;;2.90;2.42;;;;;;;;;;5158246;27;20086;-72
2021/06/01 21:24:02;;;;;;;3.25;2.17;;;;;;;;;;5141113;27;20433;-72
2021/06/01 21:26:28;;;;;;;4.97;2.40;;;;;;;;;;5140494;27;20094;-72
2021/06/01 21:28:54;;;;;;;6.40;2.40;;;;;;;;;;5159808;27;20173;-72
2021/06/01 21:31:23;;;;;;;3.30;1.90;;;;;;;;;;5160095;27;20071;-72
2021/06/01 21:34:03;;;;;;;3.47;2.10;;;;;;;;;;5157972;27;20601;-71
2021/06/01 21:36:29;;;;;;;3.95;2.47;;;;;;;;;;5141604;27;20133;-72
2021/06/01 21:38:55;;;;;;;6.37;2.30;;;;;;;;;;5140569;27;20101;-71
2021/06/01 21:41:20;;;;;;;4.53;2.42;;;;;;;;;;5157998;27;20172;-72
2021/06/01 21:43:46;;;;;;;3.47;2.17;;;;;;;;;;5123913;27;20090;-72
2021/06/01 21:46:12;;;;;;;3.47;2.25;;;;;;;;;;5157952;27;20074;-70
2021/06/01 21:48:43;;;;;;;2.80;2.10;;;;;;;;;;5140667;27;20090;-69
2021/06/01 21:51:09;;;;;;;3.30;1.90;;;;;;;;;;5160098;27;20394;-69
2021/06/01 21:53:35;;;;;;;3.83;2.35;;;;;;;;;;5159584;27;20482;-69
2021/06/01 21:56:01;;;;;;;5.57;2.87;;;;;;;;;;5159618;27;20403;-70
2021/06/01 21:58:27;;;;;;;4.15;2.40;;;;;;;;;;5158104;27;20164;-68
2021/06/01 22:00:53;;;;;;;4.18;2.15;;;;;;;;;;5159318;27;20142;-69
2021/06/01 22:03:23;;;;;;;4.00;2.33;;;;;;;;;;5162515;27;20090;-69
2021/06/01 22:05:49;;;;;;;3.08;2.30;;;;;;;;;;5163213;27;20101;-69
2021/06/01 22:08:15;;;;;;;4.57;2.12;;;;;;;;;;5161227;27;20101;-69
2021/06/01 22:10:44;;;;;;;7.35;2.62;;;;;;;;;;5158884;27;20204;-69
2021/06/01 22:13:11;;;;;;;2.35;2.05;;;;;;;;;;5159575;27;20071;-70
2021/06/01 22:15:37;;;;;;;6.00;2.53;;;;;;;;;;5159200;27;20060;-70
2021/06/01 22:18:16;;;;;;;4.72;2.40;;;;;;;;;;5159385;27;20148;-70
2021/06/01 22:20:46;;;;;;;4.55;2.50;;;;;;;;;;5159399;27;20502;-72
2021/06/01 22:23:32;;;;;;;3.50;2.45;;;;;;;;;;5159381;27;20094;-71
2021/06/01 22:26:00;;;;;;;4.35;2.70;;;;;;;;;;5157851;27;20558;-71
2021/06/01 22:28:28;;;;;;;5.45;2.15;;;;;;;;;;5158941;27;20239;-70
2021/06/01 22:30:54;;;;;;;2.92;2.08;;;;;;;;;;5140583;27;20422;-70
2021/06/01 22:33:20;;;;;;;4.47;2.67;;;;;;;;;;5140656;27;20090;-71
2021/06/01 22:35:46;;;;;;;3.25;2.50;;;;;;;;;;5140167;27;20082;-70
2021/06/01 22:38:11;;;;;;;5.70;2.58;;;;;;;;;;5159126;27;20504;-70
2021/06/01 22:40:37;;;;;;;3.45;2.60;;;;;;;;;;5159369;27;20161;-72
2021/06/01 22:43:03;;;;;;;4.10;2.47;;;;;;;;;;5159367;27;20087;-73